createdAt,value
2019-03-30T00:00:37.321Z,102191.08
2019-03-30T00:03:11.378Z,102188.93
2019-03-30T00:05:39.970Z,102182.16
2019-03-30T00:08:08.527Z,102182.16
2019-03-30T00:10:37.117Z,102178.64
2019-03-30T00:13:05.665Z,102177.27
2019-03-30T00:15:34.659Z,102172.51
2019-03-30T00:18:03.215Z,102167.29
2019-03-30T00:20:31.794Z,102167.29
2019-03-30T00:23:00.371Z,102175.55
2019-03-30T00:25:29.088Z,102166.06
2019-03-30T00:27:57.679Z,102169.09
2019-03-30T00:30:26.638Z,102163.02
2019-03-30T00:32:55.226Z,102169.86
2019-03-30T00:35:23.773Z,102162.92
2019-03-30T00:37:52.363Z,102154.27
2019-03-30T00:40:20.934Z,102139.16
2019-03-30T00:42:50.258Z,102147.82
2019-03-30T00:45:18.817Z,102142.16
2019-03-30T00:47:47.417Z,102142.16
2019-03-30T00:50:18.777Z,102151.22
2019-03-30T00:52:47.523Z,102151.22
2019-03-30T00:55:19.111Z,102152.91
2019-03-30T00:57:47.695Z,102144.28
2019-03-30T01:00:16.690Z,102142.99
2019-03-30T01:02:47.983Z,102137.38
2019-03-30T01:05:18.079Z,102137.38
2019-03-30T01:07:49.837Z,102136.87
2019-03-30T01:10:18.402Z,102133.40
2019-03-30T01:12:47.159Z,102130.81
2019-03-30T01:15:17.376Z,102132.14
2019-03-30T01:17:46.126Z,102129.50
2019-03-30T01:20:15.126Z,102133.78
2019-03-30T01:22:45.615Z,102133.78
2019-03-30T01:25:15.267Z,102133.74
2019-03-30T01:27:43.860Z,102129.80
2019-03-30T01:30:22.998Z,102134.09
2019-03-30T01:32:43.366Z,102124.52
2019-03-30T01:35:12.527Z,102125.80
2019-03-30T01:37:41.144Z,102125.77
2019-03-30T01:40:09.944Z,102117.52
2019-03-30T01:42:38.526Z,102117.52
2019-03-30T01:45:08.497Z,102112.28
2019-03-30T01:47:37.511Z,102111.86
2019-03-30T01:50:17.293Z,102115.72
2019-03-30T01:52:39.229Z,102117.44
2019-03-30T01:55:09.196Z,102113.56
2019-03-30T01:57:37.776Z,102120.38
2019-03-30T02:00:10.928Z,102121.66
2019-03-30T02:02:39.574Z,102114.23
2019-03-30T02:07:28.637Z,102114.76
2019-03-30T02:09:57.651Z,102110.38
2019-03-30T02:12:26.236Z,102109.09
2019-03-30T02:14:54.873Z,102108.66
2019-03-30T02:17:23.484Z,102112.90
2019-03-30T02:19:52.097Z,102109.98
2019-03-30T02:22:20.706Z,102109.51
2019-03-30T02:24:49.411Z,102099.17
2019-03-30T02:27:17.973Z,102107.32
2019-03-30T02:29:48.093Z,102104.27
2019-03-30T02:32:19.379Z,102099.88
2019-03-30T02:34:47.999Z,102106.41
2019-03-30T02:37:18.115Z,102103.02
2019-03-30T02:39:48.260Z,102094.84
2019-03-30T02:42:20.323Z,102094.84
2019-03-30T02:44:48.881Z,102098.70
2019-03-30T02:47:17.532Z,102102.50
2019-03-30T02:49:49.527Z,102099.82
2019-03-30T02:52:18.142Z,102101.86
2019-03-30T02:54:49.942Z,102101.42
2019-03-30T02:57:18.902Z,102101.75
2019-03-30T02:59:47.593Z,102099.70
2019-03-30T03:02:19.388Z,102094.14
2019-03-30T03:04:48.012Z,102094.72
2019-03-30T03:07:18.279Z,102090.38
2019-03-30T03:09:47.099Z,102082.23
2019-03-30T03:12:15.709Z,102078.48
2019-03-30T03:14:44.632Z,102075.42
2019-03-30T03:17:13.233Z,102072.81
2019-03-30T03:19:41.848Z,102067.17
2019-03-30T03:22:10.452Z,102061.23
2019-03-30T03:24:39.061Z,102065.41
2019-03-30T03:27:07.768Z,102071.25
2019-03-30T03:29:36.487Z,102069.75
2019-03-30T03:32:05.201Z,102074.58
2019-03-30T03:34:33.884Z,102072.81
2019-03-30T03:37:02.478Z,102062.03
2019-03-30T03:39:31.061Z,102059.31
2019-03-30T03:41:59.837Z,102052.83
2019-03-30T03:44:28.424Z,102056.57
2019-03-30T03:46:56.997Z,102058.28
2019-03-30T03:49:25.656Z,102054.91
2019-03-30T03:51:54.420Z,102057.42
2019-03-30T03:54:23.159Z,102050.90
2019-03-30T03:56:52.960Z,102051.80
2019-03-30T03:59:23.885Z,102049.34
2019-03-30T04:01:55.291Z,102050.73
2019-03-30T04:04:27.465Z,102051.95
2019-03-30T04:07:03.412Z,102049.77
2019-03-30T04:09:34.672Z,102049.77
2019-03-30T04:12:06.334Z,102043.72
2019-03-30T04:14:37.404Z,102046.23
2019-03-30T04:17:06.306Z,102049.23
2019-03-30T04:19:34.883Z,102042.37
2019-03-30T04:22:03.465Z,102030.81
2019-03-30T04:24:32.047Z,102042.00
2019-03-30T04:27:00.645Z,102032.16
2019-03-30T04:29:29.204Z,102032.52
2019-03-30T04:31:57.860Z,102030.76
2019-03-30T04:34:26.483Z,102027.27
2019-03-30T04:36:55.096Z,102029.34
2019-03-30T04:39:23.662Z,102022.50
2019-03-30T04:41:52.251Z,102030.22
2019-03-30T04:44:20.853Z,102023.36
2019-03-30T04:46:49.952Z,102023.30
2019-03-30T04:49:18.532Z,102025.81
2019-03-30T04:51:57.559Z,102021.95
2019-03-30T04:54:17.848Z,102023.66
2019-03-30T04:56:47.970Z,102024.52
2019-03-30T04:59:18.216Z,102023.66
2019-03-30T05:01:46.950Z,102017.56
2019-03-30T05:04:15.510Z,102009.91
2019-03-30T05:06:46.465Z,102009.09
2019-03-30T05:09:15.157Z,102012.48
2019-03-30T05:11:43.767Z,102004.70
2019-03-30T05:14:12.399Z,102006.42
2019-03-30T05:16:41.008Z,102004.28
2019-03-30T05:19:09.632Z,102009.90
2019-03-30T05:21:38.261Z,102001.33
2019-03-30T05:24:06.854Z,102003.05
2019-03-30T05:26:35.459Z,102012.16
2019-03-30T05:29:04.070Z,102011.35
2019-03-30T05:31:32.686Z,102005.41
2019-03-30T05:34:01.243Z,102012.33
2019-03-30T05:36:29.909Z,102009.81
2019-03-30T05:38:58.524Z,102012.44
2019-03-30T05:41:27.129Z,102012.59
2019-03-30T05:43:55.703Z,102005.40
2019-03-30T05:46:24.365Z,102005.40
2019-03-30T05:48:52.981Z,101999.39
2019-03-30T05:51:21.591Z,102003.02
2019-03-30T05:53:50.212Z,102003.02
2019-03-30T05:56:18.821Z,102002.20
2019-03-30T05:58:47.432Z,102003.95
2019-03-30T06:01:19.023Z,102001.42
2019-03-30T06:03:47.582Z,101997.19
2019-03-30T06:06:16.798Z,101989.11
2019-03-30T06:08:45.832Z,101998.30
2019-03-30T06:11:17.459Z,101978.59
2019-03-30T06:13:48.828Z,101978.59
2019-03-30T06:16:17.446Z,101995.44
2019-03-30T06:18:48.835Z,101997.21
2019-03-30T06:21:17.558Z,101994.75
2019-03-30T06:23:48.888Z,101994.75
2019-03-30T06:26:17.905Z,101993.61
2019-03-30T06:28:48.133Z,101985.91
2019-03-30T06:31:19.359Z,101985.91
2019-03-30T06:33:48.028Z,101987.27
2019-03-30T06:36:18.183Z,101981.33
2019-03-30T06:38:49.571Z,101985.66
2019-03-30T06:41:18.211Z,101985.66
2019-03-30T06:43:49.764Z,101983.52
2019-03-30T06:46:18.405Z,101986.13
2019-03-30T06:48:47.022Z,101983.98
2019-03-30T06:51:15.644Z,101983.98
2019-03-30T06:53:46.523Z,101982.67
2019-03-30T06:56:15.174Z,101980.95
2019-03-30T06:58:43.798Z,101980.95
2019-03-30T07:01:12.717Z,101974.07
2019-03-30T07:03:41.671Z,101972.31
2019-03-30T07:06:11.568Z,101972.31
2019-03-30T07:08:42.688Z,101972.30
2019-03-30T07:11:21.051Z,101974.44
2019-03-30T07:13:46.027Z,101969.23
2019-03-30T07:16:17.603Z,101974.80
2019-03-30T07:18:46.932Z,101980.84
2019-03-30T07:21:18.303Z,101977.39
2019-03-30T07:23:49.793Z,101977.81
2019-03-30T07:26:18.423Z,101973.02
2019-03-30T07:28:47.416Z,101966.48
2019-03-30T07:31:18.819Z,101968.58
2019-03-30T07:33:47.429Z,101972.36
2019-03-30T07:36:19.220Z,101972.77
2019-03-30T07:38:47.832Z,101970.50
2019-03-30T07:41:18.141Z,101980.30
2019-03-30T07:43:49.664Z,101971.09
2019-03-30T07:46:19.675Z,101972.30
2019-03-30T07:48:48.647Z,101967.05
2019-03-30T07:51:17.277Z,101970.77
2019-03-30T07:53:47.417Z,101971.48
2019-03-30T07:56:19.312Z,101963.09
2019-03-30T07:58:48.196Z,101958.53
2019-03-30T08:01:19.713Z,101954.47
2019-03-30T08:03:48.322Z,101954.76
2019-03-30T08:06:16.878Z,101951.15
2019-03-30T08:08:45.642Z,101952.63
2019-03-30T08:11:14.643Z,101951.47
2019-03-30T08:13:43.208Z,101949.31
2019-03-30T08:16:11.774Z,101955.61
2019-03-30T08:18:40.387Z,101956.42
2019-03-30T08:21:09.009Z,101945.81
2019-03-30T08:23:40.693Z,101950.03
2019-03-30T08:26:08.389Z,101945.33
2019-03-30T08:28:37.001Z,101936.64
2019-03-30T08:31:17.143Z,101942.88
2019-03-30T08:33:48.951Z,101940.80
2019-03-30T08:36:17.538Z,101939.88
2019-03-30T08:38:48.993Z,101946.70
2019-03-30T08:41:17.600Z,101951.87
2019-03-30T08:43:46.843Z,101942.13
2019-03-30T08:46:15.881Z,101943.92
2019-03-30T08:48:47.225Z,101942.41
2019-03-30T08:51:20.661Z,101939.67
2019-03-30T08:53:54.362Z,101931.87
2019-03-30T08:56:18.186Z,101935.63
2019-03-30T08:58:49.584Z,101938.78
2019-03-30T09:01:18.620Z,101935.04
2019-03-30T09:03:47.485Z,101930.66
2019-03-30T09:06:18.820Z,101924.69
2019-03-30T09:08:47.451Z,101916.98
2019-03-30T09:11:19.142Z,101915.22
2019-03-30T09:13:47.781Z,101915.31
2019-03-30T09:16:16.372Z,101908.95
2019-03-30T09:18:45.093Z,101906.22
2019-03-30T09:21:13.853Z,101894.65
2019-03-30T09:23:42.549Z,101899.27
2019-03-30T09:26:11.164Z,101890.01
2019-03-30T09:28:39.786Z,101889.37
2019-03-30T09:31:08.365Z,101889.66
2019-03-30T09:33:37.014Z,101873.61
2019-03-30T09:36:05.643Z,101878.33
2019-03-30T09:38:34.659Z,101875.08
2019-03-30T09:41:03.269Z,101874.23
2019-03-30T09:43:31.901Z,101871.93
2019-03-30T09:46:00.522Z,101875.92
2019-03-30T09:48:29.079Z,101874.47
2019-03-30T09:50:57.673Z,101866.02
2019-03-30T09:53:26.274Z,101863.80
2019-03-30T09:55:55.294Z,101855.74
2019-03-30T09:58:24.012Z,101854.69
2019-03-30T10:00:52.665Z,101853.25
2019-03-30T10:03:21.237Z,101846.08
2019-03-30T10:05:49.854Z,101844.38
2019-03-30T10:08:18.460Z,101840.57
2019-03-30T10:10:47.174Z,101844.17
2019-03-30T10:13:17.340Z,101835.72
2019-03-30T10:15:47.488Z,101829.63
2019-03-30T10:18:19.485Z,101822.77
2019-03-30T10:20:48.099Z,101822.12
2019-03-30T10:23:18.202Z,101819.36
2019-03-30T10:25:49.738Z,101816.55
2019-03-30T10:28:18.450Z,101810.38
2019-03-30T10:30:47.174Z,101807.28
2019-03-30T10:33:17.334Z,101802.87
2019-03-30T10:35:47.482Z,101802.33
2019-03-30T10:38:19.384Z,101800.48
2019-03-30T10:40:48.095Z,101794.33
2019-03-30T10:43:18.193Z,101791.56
2019-03-30T10:45:49.794Z,101776.31
2019-03-30T10:48:18.391Z,101778.79
2019-03-30T10:50:47.006Z,101779.40
2019-03-30T10:53:15.927Z,101781.50
2019-03-30T10:55:47.421Z,101773.45
2019-03-30T10:58:17.508Z,101776.92
2019-03-30T11:00:49.426Z,101775.31
2019-03-30T11:03:18.403Z,101770.12
2019-03-30T11:05:47.017Z,101757.20
2019-03-30T11:08:15.666Z,101762.08
2019-03-30T11:10:44.553Z,101750.23
2019-03-30T11:13:13.160Z,101742.81
2019-03-30T11:15:41.722Z,101745.06
2019-03-30T11:18:10.719Z,101750.84
2019-03-30T11:20:39.270Z,101751.49
2019-03-30T11:23:07.920Z,101743.03
2019-03-30T11:25:36.662Z,101740.41
2019-03-30T11:28:05.264Z,101739.83
2019-03-30T11:30:33.875Z,101745.69
2019-03-30T11:33:02.506Z,101734.92
2019-03-30T11:35:31.324Z,101735.11
2019-03-30T11:37:59.943Z,101732.06
2019-03-30T11:40:28.667Z,101726.83
2019-03-30T11:42:57.295Z,101724.15
2019-03-30T11:45:26.007Z,101722.01
2019-03-30T11:47:54.625Z,101717.86
2019-03-30T11:50:23.244Z,101709.27
2019-03-30T11:52:51.853Z,101713.59
2019-03-30T11:55:22.487Z,101699.81
2019-03-30T11:57:51.324Z,101704.28
2019-03-30T12:00:20.017Z,101698.77
2019-03-30T12:02:48.894Z,101693.77
2019-03-30T12:05:17.666Z,101691.03
2019-03-30T12:07:46.314Z,101683.35
2019-03-30T12:10:15.087Z,101680.86
2019-03-30T12:12:43.702Z,101674.66
2019-03-30T12:15:12.309Z,101670.63
2019-03-30T12:17:41.463Z,101669.00
2019-03-30T12:20:10.484Z,101660.77
2019-03-30T12:22:39.062Z,101654.25
2019-03-30T12:25:07.953Z,101653.05
2019-03-30T12:27:36.553Z,101646.97
2019-03-30T12:30:06.765Z,101648.08
2019-03-30T12:32:35.342Z,101629.21
2019-03-30T12:35:05.239Z,101630.91
2019-03-30T12:37:34.206Z,101628.64
2019-03-30T12:40:02.888Z,101621.93
2019-03-30T12:42:31.495Z,101617.56
2019-03-30T12:45:00.355Z,101619.94
2019-03-30T12:47:29.333Z,101618.83
2019-03-30T12:49:57.949Z,101613.09
2019-03-30T12:52:26.702Z,101610.27
2019-03-30T12:54:55.270Z,101608.64
2019-03-30T12:57:23.883Z,101606.03
2019-03-30T12:59:52.499Z,101592.92
2019-03-30T13:02:21.204Z,101587.74
2019-03-30T13:04:49.851Z,101584.06
2019-03-30T13:07:18.431Z,101577.66
2019-03-30T13:09:47.040Z,101576.62
2019-03-30T13:12:15.601Z,101580.59
2019-03-30T13:14:46.473Z,101585.66
2019-03-30T13:17:15.436Z,101573.76
2019-03-30T13:19:44.427Z,101577.84
2019-03-30T13:22:12.983Z,101576.23
2019-03-30T13:24:41.792Z,101565.86
2019-03-30T13:27:12.905Z,101553.36
2019-03-30T13:29:40.696Z,101545.83
2019-03-30T13:32:09.395Z,101551.75
2019-03-30T13:34:37.980Z,101550.52
2019-03-30T13:37:20.156Z,101549.71
2019-03-30T13:39:48.738Z,101551.43
2019-03-30T13:42:17.359Z,101548.13
2019-03-30T13:44:47.506Z,101543.80
2019-03-30T13:47:19.093Z,101543.44
2019-03-30T13:49:47.706Z,101536.98
2019-03-30T13:52:16.312Z,101537.86
2019-03-30T13:54:47.184Z,101535.23
2019-03-30T13:57:17.351Z,101537.28
2019-03-30T13:59:47.936Z,101526.50
2019-03-30T14:02:18.431Z,101518.48
2019-03-30T14:04:47.109Z,101516.77
2019-03-30T14:07:15.837Z,101523.64
2019-03-30T14:09:45.274Z,101517.89
2019-03-30T14:12:13.839Z,101515.92
2019-03-30T14:14:42.421Z,101513.94
2019-03-30T14:17:10.981Z,101506.88
2019-03-30T14:19:39.568Z,101512.90
2019-03-30T14:22:08.134Z,101503.45
2019-03-30T14:24:36.710Z,101499.48
2019-03-30T14:27:05.271Z,101501.92
2019-03-30T14:29:33.944Z,101497.48
2019-03-30T14:32:02.581Z,101495.58
2019-03-30T14:34:31.289Z,101491.42
2019-03-30T14:36:59.851Z,101483.44
2019-03-30T14:39:28.403Z,101484.92
2019-03-30T14:41:56.978Z,101474.70
2019-03-30T14:44:25.813Z,101466.63
2019-03-30T14:46:54.540Z,101482.09
2019-03-30T14:49:23.148Z,101469.64
2019-03-30T14:51:51.962Z,101465.03
2019-03-30T14:54:20.522Z,101455.51
2019-03-30T14:56:49.095Z,101456.15
2019-03-30T14:59:17.708Z,101457.47
2019-03-30T15:01:46.848Z,101446.31
2019-03-30T15:04:18.735Z,101439.22
2019-03-30T15:06:47.354Z,101435.81
2019-03-30T15:09:17.618Z,101433.72
2019-03-30T15:11:46.264Z,101430.70
2019-03-30T15:14:16.458Z,101429.12
2019-03-30T15:16:45.402Z,101433.20
2019-03-30T15:19:14.027Z,101424.45
2019-03-30T15:21:42.611Z,101425.90
2019-03-30T15:24:11.225Z,101419.58
2019-03-30T15:26:40.183Z,101408.99
2019-03-30T15:29:08.743Z,101409.80
2019-03-30T15:31:37.328Z,101405.90
2019-03-30T15:34:05.874Z,101404.30
2019-03-30T15:36:34.473Z,101407.09
2019-03-30T15:39:03.112Z,101399.99
2019-03-30T15:41:31.702Z,101405.80
2019-03-30T15:44:00.270Z,101400.50
2019-03-30T15:46:29.397Z,101397.75
2019-03-30T15:48:58.004Z,101391.66
2019-03-30T15:51:26.596Z,101394.87
2019-03-30T15:53:55.532Z,101391.34
2019-03-30T15:56:24.115Z,101388.39
2019-03-30T15:58:52.749Z,101389.50
2019-03-30T16:01:21.336Z,101390.55
2019-03-30T16:03:49.999Z,101389.49
2019-03-30T16:06:18.583Z,101388.26
2019-03-30T16:08:47.315Z,101383.83
2019-03-30T16:11:17.414Z,101384.63
2019-03-30T16:13:49.399Z,101386.25
2019-03-30T16:16:18.391Z,101374.81
2019-03-30T16:18:47.413Z,101371.02
2019-03-30T16:21:18.800Z,101378.95
2019-03-30T16:23:47.614Z,101376.44
2019-03-30T16:26:16.323Z,101377.78
2019-03-30T16:28:46.571Z,101375.64
2019-03-30T16:31:17.953Z,101371.58
2019-03-30T16:33:48.209Z,101372.13
2019-03-30T16:36:17.130Z,101377.83
2019-03-30T16:38:47.294Z,101364.95
2019-03-30T16:41:17.367Z,101370.59
2019-03-30T16:43:46.065Z,101363.09
2019-03-30T16:46:14.893Z,101360.33
2019-03-30T16:48:45.381Z,101356.34
2019-03-30T16:51:14.211Z,101355.80
2019-03-30T16:53:43.233Z,101363.53
2019-03-30T16:56:11.957Z,101356.02
2019-03-30T16:58:40.574Z,101358.03
2019-03-30T17:01:09.183Z,101359.78
2019-03-30T17:03:37.790Z,101360.28
2019-03-30T17:06:06.411Z,101354.68
2019-03-30T17:08:35.121Z,101356.59
2019-03-30T17:11:03.695Z,101352.30
2019-03-30T17:13:32.351Z,101353.62
2019-03-30T17:16:00.964Z,101352.45
2019-03-30T17:18:29.572Z,101351.84
2019-03-30T17:20:58.310Z,101348.78
2019-03-30T17:23:27.301Z,101345.63
2019-03-30T17:25:56.319Z,101348.08
2019-03-30T17:28:24.912Z,101349.88
2019-03-30T17:30:53.484Z,101348.25
2019-03-30T17:33:22.487Z,101348.82
2019-03-30T17:35:51.053Z,101347.77
2019-03-30T17:38:19.679Z,101353.95
2019-03-30T17:40:48.406Z,101353.69
2019-03-30T17:43:17.000Z,101354.86
2019-03-30T17:45:45.726Z,101350.70
2019-03-30T17:48:17.436Z,101354.66
2019-03-30T17:50:48.703Z,101354.56
2019-03-30T17:53:17.304Z,101355.92
2019-03-30T17:55:47.400Z,101357.59
2019-03-30T17:58:17.484Z,101360.05
2019-03-30T18:00:49.061Z,101360.33
2019-03-30T18:03:17.644Z,101358.02
2019-03-30T18:05:48.985Z,101360.48
2019-03-30T18:08:17.578Z,101358.52
2019-03-30T18:10:48.830Z,101362.05
2019-03-30T18:13:17.410Z,101362.34
2019-03-30T18:15:46.162Z,101360.03
2019-03-30T18:18:16.421Z,101366.05
2019-03-30T18:20:45.441Z,101362.41
2019-03-30T18:23:14.568Z,101361.36
2019-03-30T18:25:43.273Z,101368.45
2019-03-30T18:28:26.172Z,101369.20
2019-03-30T18:30:42.583Z,101363.81
2019-03-30T18:33:11.159Z,101363.66
2019-03-30T18:35:41.124Z,101367.30
2019-03-30T18:38:12.997Z,101368.28
2019-03-30T18:40:40.711Z,101364.19
2019-03-30T18:43:10.990Z,101368.28
2019-03-30T18:45:39.574Z,101364.67
2019-03-30T18:48:15.866Z,101374.00
2019-03-30T18:50:45.896Z,101366.02
2019-03-30T18:53:16.203Z,101368.90
2019-03-30T18:55:46.485Z,101369.52
2019-03-30T18:58:15.309Z,101368.44
2019-03-30T19:00:44.344Z,101369.84
2019-03-30T19:03:13.107Z,101366.19
2019-03-30T19:05:41.718Z,101362.90
2019-03-30T19:08:10.761Z,101361.66
2019-03-30T19:10:39.414Z,101368.66
2019-03-30T19:13:07.984Z,101360.58
2019-03-30T19:15:36.924Z,101367.29
2019-03-30T19:18:05.656Z,101362.63
2019-03-30T19:20:34.327Z,101362.78
2019-03-30T19:23:02.958Z,101363.30
2019-03-30T19:25:31.670Z,101358.30
2019-03-30T19:28:00.359Z,101361.48
2019-03-30T19:30:29.026Z,101358.94
2019-03-30T19:32:57.647Z,101353.04
2019-03-30T19:35:26.270Z,101356.64
2019-03-30T19:37:54.878Z,101359.77
2019-03-30T19:40:23.505Z,101351.59
2019-03-30T19:42:52.131Z,101353.10
2019-03-30T19:45:20.838Z,101354.19
2019-03-30T19:47:49.460Z,101352.25
2019-03-30T19:50:18.082Z,101349.80
2019-03-30T19:52:49.377Z,101350.33
2019-03-30T19:55:18.090Z,101355.32
2019-03-30T19:57:49.386Z,101357.58
2019-03-30T20:00:18.518Z,101348.13
2019-03-30T20:02:47.161Z,101348.64
2019-03-30T20:05:17.430Z,101345.33
2019-03-30T20:07:49.011Z,101344.31
2019-03-30T20:10:18.173Z,101345.42
2019-03-30T20:12:49.525Z,101346.69
2019-03-30T20:15:18.244Z,101343.55
2019-03-30T20:17:49.572Z,101344.19
2019-03-30T20:20:18.168Z,101340.23
2019-03-30T20:22:49.659Z,101344.59
2019-03-30T20:25:18.274Z,101340.05
2019-03-30T20:27:49.891Z,101335.95
2019-03-30T20:30:18.892Z,101339.98
2019-03-30T20:32:47.606Z,101333.61
2019-03-30T20:35:18.800Z,101332.39
2019-03-30T20:37:47.736Z,101332.07
2019-03-30T20:40:16.794Z,101326.08
2019-03-30T20:42:48.496Z,101325.20
2019-03-30T20:45:17.833Z,101329.08
2019-03-30T20:47:46.567Z,101323.81
2019-03-30T20:50:15.476Z,101317.45
2019-03-30T20:52:44.605Z,101324.98
2019-03-30T20:55:13.725Z,101325.11
2019-03-30T20:57:42.352Z,101325.19
2019-03-30T21:00:11.918Z,101315.31
2019-03-30T21:02:40.601Z,101315.37
2019-03-30T21:05:09.626Z,101313.27
2019-03-30T21:07:41.669Z,101309.38
2019-03-30T21:10:10.744Z,101310.48
2019-03-30T21:12:39.409Z,101307.05
2019-03-30T21:15:08.555Z,101300.69
2019-03-30T21:17:37.259Z,101300.34
2019-03-30T21:20:06.998Z,101295.54
2019-03-30T21:22:35.803Z,101293.79
2019-03-30T21:25:05.798Z,101293.84
2019-03-30T21:27:34.454Z,101285.20
2019-03-30T21:30:04.835Z,101288.52
2019-03-30T21:32:33.461Z,101293.92
2019-03-30T21:35:02.094Z,101304.19
2019-03-30T21:37:30.742Z,101303.55
2019-03-30T21:39:59.343Z,101304.63
2019-03-30T21:42:27.953Z,101301.66
2019-03-30T21:44:56.774Z,101294.51
2019-03-30T21:47:25.383Z,101291.19
2019-03-30T21:49:53.992Z,101296.97
2019-03-30T21:52:22.574Z,101293.06
2019-03-30T21:54:51.209Z,101300.75
2019-03-30T21:57:19.922Z,101296.52
2019-03-30T21:59:48.533Z,101301.44
2019-03-30T22:02:17.282Z,101300.03
2019-03-30T22:04:47.399Z,101299.41
2019-03-30T22:07:16.439Z,101297.21
2019-03-30T22:09:45.356Z,101294.34
2019-03-30T22:12:14.046Z,101299.26
2019-03-30T22:14:43.089Z,101298.22
2019-03-30T22:17:11.702Z,101294.15
2019-03-30T22:19:40.330Z,101291.55
2019-03-30T22:22:09.029Z,101295.06
2019-03-30T22:24:37.629Z,101291.66
2019-03-30T22:27:06.244Z,101296.07
2019-03-30T22:29:34.831Z,101295.51
2019-03-30T22:32:03.784Z,101299.28
2019-03-30T22:34:32.397Z,101295.50
2019-03-30T22:37:01.004Z,101296.20
2019-03-30T22:39:29.613Z,101299.45
2019-03-30T22:41:58.550Z,101296.23
2019-03-30T22:44:27.164Z,101301.50
2019-03-30T22:46:55.773Z,101296.37
2019-03-30T22:49:24.362Z,101298.86
2019-03-30T22:51:53.004Z,101298.16
2019-03-30T22:54:21.620Z,101294.42
2019-03-30T22:56:50.635Z,101289.39
2019-03-30T22:59:19.247Z,101293.28
2019-03-30T23:01:48.264Z,101289.53
2019-03-30T23:04:19.868Z,101291.37
2019-03-30T23:06:48.422Z,101287.63
2019-03-30T23:09:18.109Z,101286.42
2019-03-30T23:11:48.198Z,101287.32
2019-03-30T23:14:19.468Z,101284.72
2019-03-30T23:16:48.074Z,101287.94
2019-03-30T23:19:18.328Z,101288.07
2019-03-30T23:21:49.823Z,101285.08
2019-03-30T23:24:18.428Z,101285.13
2019-03-30T23:26:47.046Z,101283.63
2019-03-30T23:29:15.934Z,101277.68
2019-03-30T23:31:44.582Z,101287.67
2019-03-30T23:34:13.191Z,101280.39
2019-03-30T23:36:41.794Z,101277.66
2019-03-30T23:39:10.454Z,101282.93
2019-03-30T23:41:39.116Z,101282.67
2019-03-30T23:44:07.727Z,101281.97
2019-03-30T23:46:36.338Z,101282.33
2019-03-30T23:49:05.051Z,101278.34
2019-03-30T23:51:33.656Z,101276.02
2019-03-30T23:54:02.268Z,101272.92
2019-03-30T23:56:30.879Z,101278.41
2019-03-30T23:58:59.498Z,101274.09
